• Join FlightAware (Why Join?)
  • Login
  • US Flag 
08:44PM EDT


 

Airport Tracker/Info


-or-


 

Live Flight TrackerFlight Track Log ✈ UAL3589 ✈ 06-Jan-2014 ✈ KBUF - KEWR

Flight Track Log - Related Links

Times and Time Zones

All times are in EST time to prevent confusion due to time zone crossing. See the UAL3589 flight status page for this flight to view local times or setup timezone preferences in your user account.

Time Position Orientation Groundspeed Altitude Reporting Facility
EST Latitude Longitude Course Direction KTS MPH feet Rate Location/Type
03:15PM 42.9333 -78.7333 180° South 123 142 1,400  Level Buffalo TRACON
03:17PM 42.9000 -78.7333 180° South 178 205 2,900 1,380 Climbing Buffalo TRACON
03:18PM 42.8833 -78.6500 105° East 252 290 4,400 1,380 Climbing Buffalo TRACON
03:19PM 42.8867 -78.5700 87° East 228 262 5,800 1,500 Climbing Cleveland Center
03:20PM 42.8842 -78.4789 92° East 229 264 7,500 1,440 Climbing Cleveland Center
03:21PM 42.8814 -78.3997 93° East 219 252 8,800 1,200 Climbing Cleveland Center
03:22PM 42.8778 -78.3081 93° East 231 266 10,000 1,320 Climbing Cleveland Center
03:23PM 42.8747 -78.2281 93° East 225 259 11,600 1,260 Climbing Cleveland Center
03:24PM 42.8631 -78.1469 101° East 219 252 12,700 1,200 Climbing Cleveland Center
03:25PM 42.8414 -78.0675 110° East 224 258 14,100 1,140 Climbing Cleveland Center
03:26PM 42.8147 -77.9683 110° East 234 269 15,100 420 Climbing Cleveland Center
03:27PM 42.7883 -77.8711 110° East 270 311 15,000 -120 Descending Cleveland Center
03:28PM 42.7611 -77.7689 110° East 284 327 14,900 -60 Descending Cleveland Center
03:29PM 42.7331 -77.6672 111° Southeast 284 327 14,900  Level Cleveland Center
03:30PM 42.7050 -77.5644 110° East 283 326 14,900  Level Cleveland Center
03:31PM 42.6775 -77.4639 110° East 279 321 14,900  Level Cleveland Center
03:32PM 42.6506 -77.3653 110° East 278 320 14,900 60 Level Cleveland Center
03:33PM 42.6236 -77.2675 111° Southeast 278 320 15,100 60 Climbing Cleveland Center
03:34PM 42.5969 -77.1706 110° East 276 318 15,100  Level Cleveland Center
03:35PM 42.5686 -77.0708 111° Southeast 280 322 15,100  Level Cleveland Center
03:36PM 42.5411 -76.9703 110° East 284 327 15,100  Level Cleveland Center
03:37PM 42.5117 -76.8678 111° Southeast 289 333 15,100  Level Cleveland Center
03:38PM 42.4769 -76.7417 110° East 281 323 15,100  Level New York Center
03:39PM 42.4447 -76.6267 111° Southeast 288 331 15,100  Level Boston Center
03:40PM 42.4167 -76.5275 111° Southeast 284 327 15,100  Level Boston Center
03:41PM 42.3872 -76.4272 112° Southeast 288 331 15,100  Level Boston Center
03:42PM 42.3589 -76.3267 111° Southeast 287 330 15,100  Level Boston Center
03:43PM 42.3353 -76.2483 112° Southeast 286 329 15,100  Level Cleveland Center
03:44PM 42.3081 -76.1506 111° Southeast 281 323 15,100  Level Cleveland Center
03:45PM 42.2747 -76.0328 111° Southeast 280 322 15,100  Level Cleveland Center
03:46PM 42.2458 -75.9364 112° Southeast 278 320 15,100  Level Cleveland Center
03:47PM 42.2211 -75.8464 110° East 273 314 15,100  Level Boston Center
03:48PM 42.1869 -75.7311 112° Southeast 275 316 15,100  Level Boston Center
03:49PM 42.1586 -75.6344 112° Southeast 277 319 15,100  Level Boston Center
03:51PM 42.1300 -75.5375 112° Southeast 278 320 15,100  Level Boston Center
03:52PM 42.1017 -75.4408 112° Southeast 278 320 15,100  Level Boston Center
03:53PM 42.0728 -75.3422 112° Southeast 281 323 15,100  Level Boston Center
03:54PM 42.0414 -75.2492 114° Southeast 277 319 15,100 -60 Level Boston Center
03:55PM 42.0042 -75.1589 119° Southeast 276 318 15,000 -60 Descending Boston Center
03:56PM 41.9664 -75.0572 117° Southeast 272 313 15,000  Level Boston Center
03:57PM 41.9322 -74.9678 117° Southeast 269 310 15,000  Level Boston Center
03:58PM 41.8964 -74.8711 116° Southeast 269 310 15,000 -360 Level Boston Center
03:59PM 41.8547 -74.7964 127° Southeast 246 283 14,300 -1,200 Descending Boston Center
04:00PM 41.8019 -74.7394 141° Southeast 243 280 12,600 -1,680 Descending Boston Center
04:01PM 41.7458 -74.6803 142° Southeast 256 295 11,000 -1,620 Descending Boston Center
04:02PM 41.6883 -74.6178 141° Southeast 265 305 9,300 -1,680 Descending Boston Center
04:03PM 41.6225 -74.5542 144° Southeast 270 311 7,600 -1,620 Descending Boston Center
04:04PM 41.5558 -74.5636 186° South 241 277 6,100 -840 Descending Boston Center
04:05PM 41.4872 -74.5750 187° South 249 287 6,000 -60 Descending Boston Center
04:06PM 41.4186 -74.5892 189° South 250 288 6,000  Level Boston Center
04:07PM 41.3489 -74.6128 194° South 244 281 6,000  Level Boston Center
04:08PM 41.2828 -74.5753 157° South 262 302 6,000  Level Boston Center
04:09PM 41.2172 -74.5336 154° Southeast 265 305 6,000  Level Boston Center
04:10PM 41.1333 -74.4833 156° South 265 305 6,000  Level New York TRACON
04:11PM 41.0667 -74.4333 151° Southeast 265 305 6,000 -240 Level New York TRACON
04:12PM 41.0000 -74.4500 191° South 251 289 5,600 -540 Descending New York TRACON
04:13PM 40.9333 -74.4333 169° South 267 307 5,000 -300 Descending New York TRACON
04:14PM 40.9500 -74.3333 78° East 269 310 5,000 -180 Level New York TRACON
04:15PM 40.9333 -74.2333 102° East 273 314 4,700 -600 Descending New York TRACON
04:16PM 40.9000 -74.1500 118° Southeast 257 296 3,800 -720 Descending New York TRACON
04:17PM 40.8667 -74.0833 123° Southeast 217 250 3,300 -660 Descending New York TRACON
04:18PM 40.8167 -74.0833 180° South 206 237 2,500 -720 Descending New York TRACON
04:19PM 40.7667 -74.0667 166° South 189 217 1,900 -600 Descending New York TRACON
04:20PM 40.7167 -74.0833 194° South 168 193 1,300 -600 Descending New York TRACON
04:21PM 40.7000 -74.1167 237° Southwest 123 142 700 -600 Descending New York TRACON